sensor_id;sensor_type;location;lat;lon;timestamp;pressure;altitude;pressure_sealevel;temperature;humidity
8653;BME280;4364;52.426;9.424;2024-01-25T00:01:35;101766.78;;;7.61;90.90
8653;BME280;4364;52.426;9.424;2024-01-25T00:04:02;101757.38;;;7.52;91.26
8653;BME280;4364;52.426;9.424;2024-01-25T00:06:29;101765.31;;;7.47;92.15
8653;BME280;4364;52.426;9.424;2024-01-25T00:08:56;101779.25;;;7.50;91.88
8653;BME280;4364;52.426;9.424;2024-01-25T00:11:22;101775.47;;;7.51;91.98
8653;BME280;4364;52.426;9.424;2024-01-25T00:13:49;101771.44;;;7.42;92.87
8653;BME280;4364;52.426;9.424;2024-01-25T00:16:16;101760.97;;;7.46;92.70
8653;BME280;4364;52.426;9.424;2024-01-25T00:18:43;101770.81;;;7.40;93.35
8653;BME280;4364;52.426;9.424;2024-01-25T00:21:10;101772.56;;;7.34;93.46
8653;BME280;4364;52.426;9.424;2024-01-25T00:23:36;101764.69;;;7.33;93.63
8653;BME280;4364;52.426;9.424;2024-01-25T00:26:03;101788.81;;;7.34;93.61
8653;BME280;4364;52.426;9.424;2024-01-25T00:28:29;101780.84;;;7.39;94.05
8653;BME280;4364;52.426;9.424;2024-01-25T00:30:56;101777.84;;;7.29;94.19
8653;BME280;4364;52.426;9.424;2024-01-25T00:33:22;101789.03;;;7.33;94.32
8653;BME280;4364;52.426;9.424;2024-01-25T00:35:49;101777.41;;;7.32;94.46
8653;BME280;4364;52.426;9.424;2024-01-25T00:38:16;101788.69;;;7.29;94.39
8653;BME280;4364;52.426;9.424;2024-01-25T00:40:43;101786.41;;;7.26;94.65
8653;BME280;4364;52.426;9.424;2024-01-25T00:43:10;101791.00;;;7.26;95.25
8653;BME280;4364;52.426;9.424;2024-01-25T00:45:37;101790.41;;;7.23;94.38
8653;BME280;4364;52.426;9.424;2024-01-25T00:48:04;101789.81;;;7.21;94.61
8653;BME280;4364;52.426;9.424;2024-01-25T00:50:31;101783.72;;;7.26;94.96
8653;BME280;4364;52.426;9.424;2024-01-25T00:52:58;101801.59;;;7.27;94.80
8653;BME280;4364;52.426;9.424;2024-01-25T00:55:25;101786.50;;;7.19;94.98
8653;BME280;4364;52.426;9.424;2024-01-25T00:57:52;101787.22;;;7.27;94.62
8653;BME280;4364;52.426;9.424;2024-01-25T01:00:19;101793.50;;;7.27;94.11
8653;BME280;4364;52.426;9.424;2024-01-25T01:02:46;101801.47;;;7.22;94.74
8653;BME280;4364;52.426;9.424;2024-01-25T01:05:14;101792.41;;;7.28;94.53
8653;BME280;4364;52.426;9.424;2024-01-25T01:07:41;101799.22;;;7.19;94.63
8653;BME280;4364;52.426;9.424;2024-01-25T01:10:08;101797.47;;;7.24;94.49
8653;BME280;4364;52.426;9.424;2024-01-25T01:12:36;101797.78;;;7.16;94.90
8653;BME280;4364;52.426;9.424;2024-01-25T01:15:03;101803.56;;;7.20;94.86
8653;BME280;4364;52.426;9.424;2024-01-25T01:17:30;101804.94;;;7.11;95.08
8653;BME280;4364;52.426;9.424;2024-01-25T01:19:58;101805.97;;;7.10;95.45
8653;BME280;4364;52.426;9.424;2024-01-25T01:22:25;101806.75;;;7.17;95.73
8653;BME280;4364;52.426;9.424;2024-01-25T01:24:51;101804.13;;;7.10;95.10
8653;BME280;4364;52.426;9.424;2024-01-25T01:27:18;101805.16;;;7.09;95.11
8653;BME280;4364;52.426;9.424;2024-01-25T01:29:46;101792.75;;;7.01;95.29
8653;BME280;4364;52.426;9.424;2024-01-25T01:32:13;101802.31;;;7.04;95.10
8653;BME280;4364;52.426;9.424;2024-01-25T01:34:39;101799.22;;;7.00;95.34
8653;BME280;4364;52.426;9.424;2024-01-25T01:37:06;101803.19;;;6.98;94.88
8653;BME280;4364;52.426;9.424;2024-01-25T01:39:33;101810.28;;;6.99;95.14
8653;BME280;4364;52.426;9.424;2024-01-25T01:41:59;101807.19;;;6.95;95.51
8653;BME280;4364;52.426;9.424;2024-01-25T01:44:27;101800.19;;;6.88;95.85
8653;BME280;4364;52.426;9.424;2024-01-25T01:46:54;101803.50;;;6.90;95.78
8653;BME280;4364;52.426;9.424;2024-01-25T01:49:21;101801.50;;;6.85;95.84
8653;BME280;4364;52.426;9.424;2024-01-25T01:51:48;101808.00;;;6.77;96.46
8653;BME280;4364;52.426;9.424;2024-01-25T01:54:16;101798.94;;;6.72;96.69
8653;BME280;4364;52.426;9.424;2024-01-25T01:56:42;101807.25;;;6.70;96.65
8653;BME280;4364;52.426;9.424;2024-01-25T01:59:11;101804.94;;;6.74;96.50
8653;BME280;4364;52.426;9.424;2024-01-25T02:01:38;101814.53;;;6.70;96.89
8653;BME280;4364;52.426;9.424;2024-01-25T02:04:05;101807.25;;;6.70;97.02
8653;BME280;4364;52.426;9.424;2024-01-25T02:06:32;101815.75;;;6.74;96.75
8653;BME280;4364;52.426;9.424;2024-01-25T02:08:58;101814.09;;;6.73;96.67
8653;BME280;4364;52.426;9.424;2024-01-25T02:11:26;101819.34;;;6.67;96.88
8653;BME280;4364;52.426;9.424;2024-01-25T02:13:53;101819.41;;;6.61;97.72
8653;BME280;4364;52.426;9.424;2024-01-25T02:16:19;101822.47;;;6.64;97.79
8653;BME280;4364;52.426;9.424;2024-01-25T02:18:47;101824.00;;;6.60;97.44
8653;BME280;4364;52.426;9.424;2024-01-25T02:21:14;101828.47;;;6.66;97.14
8653;BME280;4364;52.426;9.424;2024-01-25T02:23:41;101827.59;;;6.73;96.56
8653;BME280;4364;52.426;9.424;2024-01-25T02:26:08;101815.16;;;6.72;96.54
8653;BME280;4364;52.426;9.424;2024-01-25T02:28:35;101804.94;;;6.74;96.64
8653;BME280;4364;52.426;9.424;2024-01-25T02:31:02;101820.56;;;6.72;96.22
8653;BME280;4364;52.426;9.424;2024-01-25T02:33:29;101817.84;;;6.72;96.67
8653;BME280;4364;52.426;9.424;2024-01-25T02:35:56;101824.28;;;6.71;96.80
8653;BME280;4364;52.426;9.424;2024-01-25T02:38:22;101821.81;;;6.69;96.19
8653;BME280;4364;52.426;9.424;2024-01-25T02:40:49;101840.75;;;6.69;96.57
8653;BME280;4364;52.426;9.424;2024-01-25T02:43:17;101832.25;;;6.65;96.23
8653;BME280;4364;52.426;9.424;2024-01-25T02:45:43;101831.81;;;6.68;96.40
8653;BME280;4364;52.426;9.424;2024-01-25T02:48:10;101834.78;;;6.60;96.44
8653;BME280;4364;52.426;9.424;2024-01-25T02:50:37;101840.19;;;6.60;96.68
8653;BME280;4364;52.426;9.424;2024-01-25T02:53:04;101840.25;;;6.54;96.79
8653;BME280;4364;52.426;9.424;2024-01-25T02:55:31;101838.16;;;6.56;96.66
8653;BME280;4364;52.426;9.424;2024-01-25T02:57:58;101839.41;;;6.53;96.45
8653;BME280;4364;52.426;9.424;2024-01-25T03:00:25;101839.66;;;6.52;96.79
8653;BME280;4364;52.426;9.424;2024-01-25T03:02:51;101836.56;;;6.48;97.04
8653;BME280;4364;52.426;9.424;2024-01-25T03:05:18;101836.34;;;6.49;96.84
8653;BME280;4364;52.426;9.424;2024-01-25T03:07:45;101834.25;;;6.52;96.92
8653;BME280;4364;52.426;9.424;2024-01-25T03:10:12;101837.78;;;6.52;96.96
8653;BME280;4364;52.426;9.424;2024-01-25T03:12:40;101846.97;;;6.44;97.19
8653;BME280;4364;52.426;9.424;2024-01-25T03:15:07;101854.50;;;6.42;97.41
8653;BME280;4364;52.426;9.424;2024-01-25T03:17:33;101856.22;;;6.37;97.41
8653;BME280;4364;52.426;9.424;2024-01-25T03:20:00;101870.97;;;6.34;97.98
8653;BME280;4364;52.426;9.424;2024-01-25T03:22:27;101861.16;;;6.40;96.93
8653;BME280;4364;52.426;9.424;2024-01-25T03:24:54;101877.03;;;6.29;97.66
8653;BME280;4364;52.426;9.424;2024-01-25T03:27:20;101878.25;;;6.34;97.83
8653;BME280;4364;52.426;9.424;2024-01-25T03:29:47;101869.59;;;6.25;98.09
8653;BME280;4364;52.426;9.424;2024-01-25T03:32:13;101873.72;;;6.27;98.29
8653;BME280;4364;52.426;9.424;2024-01-25T03:34:40;101886.63;;;6.25;98.08
8653;BME280;4364;52.426;9.424;2024-01-25T03:37:06;101883.31;;;6.23;99.02
8653;BME280;4364;52.426;9.424;2024-01-25T03:39:33;101885.81;;;6.25;98.54
8653;BME280;4364;52.426;9.424;2024-01-25T03:42:00;101899.50;;;6.30;98.61
8653;BME280;4364;52.426;9.424;2024-01-25T03:44:27;101914.47;;;6.26;99.09
8653;BME280;4364;52.426;9.424;2024-01-25T03:46:54;101914.25;;;6.27;98.67
8653;BME280;4364;52.426;9.424;2024-01-25T03:49:21;101917.53;;;6.29;99.09
8653;BME280;4364;52.426;9.424;2024-01-25T03:51:49;101925.44;;;6.31;98.91
8653;BME280;4364;52.426;9.424;2024-01-25T03:54:16;101924.22;;;6.27;99.15
8653;BME280;4364;52.426;9.424;2024-01-25T03:56:43;101925.22;;;6.33;99.07
8653;BME280;4364;52.426;9.424;2024-01-25T03:59:09;101942.25;;;6.33;99.36
8653;BME280;4364;52.426;9.424;2024-01-25T04:01:45;101931.09;;;6.23;99.39
8653;BME280;4364;52.426;9.424;2024-01-25T04:04:13;101938.13;;;6.30;98.96
8653;BME280;4364;52.426;9.424;2024-01-25T04:06:42;101927.72;;;6.34;99.13
8653;BME280;4364;52.426;9.424;2024-01-25T04:09:09;101938.72;;;6.33;98.97
8653;BME280;4364;52.426;9.424;2024-01-25T04:11:36;101928.94;;;6.38;98.57
8653;BME280;4364;52.426;9.424;2024-01-25T04:14:04;101943.13;;;6.27;98.97
8653;BME280;4364;52.426;9.424;2024-01-25T04:16:32;101945.38;;;6.37;99.11
8653;BME280;4364;52.426;9.424;2024-01-25T04:18:59;101933.16;;;6.27;98.24
8653;BME280;4364;52.426;9.424;2024-01-25T04:21:28;101940.22;;;6.28;98.73
8653;BME280;4364;52.426;9.424;2024-01-25T04:23:54;101933.97;;;6.28;98.69
8653;BME280;4364;52.426;9.424;2024-01-25T04:26:21;101934.44;;;6.25;99.00
8653;BME280;4364;52.426;9.424;2024-01-25T04:28:48;101939.38;;;6.28;99.22
8653;BME280;4364;52.426;9.424;2024-01-25T04:31:16;101936.47;;;6.29;99.00
8653;BME280;4364;52.426;9.424;2024-01-25T04:33:42;101923.16;;;6.28;98.93
8653;BME280;4364;52.426;9.424;2024-01-25T04:36:14;101929.25;;;6.23;98.63
8653;BME280;4364;52.426;9.424;2024-01-25T04:38:40;101935.25;;;6.25;98.19
8653;BME280;4364;52.426;9.424;2024-01-25T04:41:07;101924.66;;;6.24;98.11
8653;BME280;4364;52.426;9.424;2024-01-25T04:43:36;101943.19;;;6.20;99.13
8653;BME280;4364;52.426;9.424;2024-01-25T04:46:03;101950.69;;;6.18;99.21
8653;BME280;4364;52.426;9.424;2024-01-25T04:48:30;101945.66;;;6.22;98.64
8653;BME280;4364;52.426;9.424;2024-01-25T04:50:58;101953.13;;;6.20;99.08
8653;BME280;4364;52.426;9.424;2024-01-25T04:53:25;101948.19;;;6.17;98.98
8653;BME280;4364;52.426;9.424;2024-01-25T04:55:54;101957.91;;;6.24;99.03
8653;BME280;4364;52.426;9.424;2024-01-25T04:58:20;101955.22;;;6.18;99.08
8653;BME280;4364;52.426;9.424;2024-01-25T05:00:47;101950.03;;;6.16;98.95
8653;BME280;4364;52.426;9.424;2024-01-25T05:03:14;101947.31;;;6.23;99.19
8653;BME280;4364;52.426;9.424;2024-01-25T05:05:40;101954.19;;;6.19;99.06
8653;BME280;4364;52.426;9.424;2024-01-25T05:08:07;101964.63;;;6.15;99.20
8653;BME280;4364;52.426;9.424;2024-01-25T05:10:33;101966.25;;;6.16;99.22
8653;BME280;4364;52.426;9.424;2024-01-25T05:13:03;101971.09;;;6.07;99.43
8653;BME280;4364;52.426;9.424;2024-01-25T05:15:29;101981.66;;;6.09;99.44
8653;BME280;4364;52.426;9.424;2024-01-25T05:17:56;101976.19;;;6.22;98.86
8653;BME280;4364;52.426;9.424;2024-01-25T05:20:23;101981.59;;;6.22;99.05
8653;BME280;4364;52.426;9.424;2024-01-25T05:22:49;101985.78;;;6.18;99.26
8653;BME280;4364;52.426;9.424;2024-01-25T05:25:16;101988.72;;;6.17;98.86
8653;BME280;4364;52.426;9.424;2024-01-25T05:27:43;101980.44;;;6.11;99.48
8653;BME280;4364;52.426;9.424;2024-01-25T05:30:10;102002.81;;;6.19;99.50
8653;BME280;4364;52.426;9.424;2024-01-25T05:32:36;101992.06;;;6.12;99.53
8653;BME280;4364;52.426;9.424;2024-01-25T05:35:03;101984.97;;;6.11;99.36
8653;BME280;4364;52.426;9.424;2024-01-25T05:37:31;101984.38;;;6.09;99.76
8653;BME280;4364;52.426;9.424;2024-01-25T05:39:58;101980.47;;;6.05;100.00
8653;BME280;4364;52.426;9.424;2024-01-25T05:42:25;101980.88;;;6.02;100.00
8653;BME280;4364;52.426;9.424;2024-01-25T05:44:52;101999.13;;;6.06;100.00
8653;BME280;4364;52.426;9.424;2024-01-25T05:47:19;101991.69;;;5.95;99.90
8653;BME280;4364;52.426;9.424;2024-01-25T05:49:45;101990.66;;;5.89;100.00
8653;BME280;4364;52.426;9.424;2024-01-25T05:52:13;102001.44;;;5.89;100.00
8653;BME280;4364;52.426;9.424;2024-01-25T05:54:40;101997.34;;;5.80;100.00
8653;BME280;4364;52.426;9.424;2024-01-25T05:57:07;101997.13;;;5.82;100.00
8653;BME280;4364;52.426;9.424;2024-01-25T05:59:33;102000.88;;;5.81;100.00
8653;BME280;4364;52.426;9.424;2024-01-25T06:02:00;101989.88;;;5.75;100.00
8653;BME280;4364;52.426;9.424;2024-01-25T06:04:27;101998.59;;;5.78;100.00
8653;BME280;4364;52.426;9.424;2024-01-25T06:06:54;101991.97;;;5.73;100.00
8653;BME280;4364;52.426;9.424;2024-01-25T06:09:21;101995.31;;;5.69;100.00
8653;BME280;4364;52.426;9.424;2024-01-25T06:11:47;101989.47;;;5.72;100.00
8653;BME280;4364;52.426;9.424;2024-01-25T06:14:14;102003.19;;;5.70;100.00
8653;BME280;4364;52.426;9.424;2024-01-25T06:16:40;102013.78;;;5.72;100.00
8653;BME280;4364;52.426;9.424;2024-01-25T06:19:07;102020.41;;;5.69;100.00
8653;BME280;4364;52.426;9.424;2024-01-25T06:21:34;102035.59;;;5.64;100.00
8653;BME280;4364;52.426;9.424;2024-01-25T06:24:02;102043.69;;;5.64;100.00
8653;BME280;4364;52.426;9.424;2024-01-25T06:26:29;102045.97;;;5.73;100.00
8653;BME280;4364;52.426;9.424;2024-01-25T06:28:56;102052.16;;;5.74;100.00
8653;BME280;4364;52.426;9.424;2024-01-25T06:31:24;102045.34;;;5.65;100.00
8653;BME280;4364;52.426;9.424;2024-01-25T06:33:50;102041.41;;;5.61;100.00
8653;BME280;4364;52.426;9.424;2024-01-25T06:36:19;102046.38;;;5.70;100.00
8653;BME280;4364;52.426;9.424;2024-01-25T06:38:46;102047.22;;;5.64;100.00
8653;BME280;4364;52.426;9.424;2024-01-25T06:41:12;102053.44;;;5.71;100.00
8653;BME280;4364;52.426;9.424;2024-01-25T06:43:39;102051.56;;;5.65;100.00
8653;BME280;4364;52.426;9.424;2024-01-25T06:46:06;102050.75;;;5.65;100.00
8653;BME280;4364;52.426;9.424;2024-01-25T06:48:33;102060.72;;;5.57;100.00
8653;BME280;4364;52.426;9.424;2024-01-25T06:51:00;102055.31;;;5.57;100.00
8653;BME280;4364;52.426;9.424;2024-01-25T06:53:27;102051.16;;;5.62;100.00
8653;BME280;4364;52.426;9.424;2024-01-25T06:55:54;102063.41;;;5.57;100.00
8653;BME280;4364;52.426;9.424;2024-01-25T06:58:20;102065.91;;;5.46;100.00
8653;BME280;4364;52.426;9.424;2024-01-25T07:00:48;102065.72;;;5.47;100.00
8653;BME280;4364;52.426;9.424;2024-01-25T07:03:15;102070.91;;;5.49;100.00
8653;BME280;4364;52.426;9.424;2024-01-25T07:05:42;102068.63;;;5.39;100.00
8653;BME280;4364;52.426;9.424;2024-01-25T07:08:09;102071.31;;;5.46;100.00
8653;BME280;4364;52.426;9.424;2024-01-25T07:10:40;102078.81;;;5.37;100.00
8653;BME280;4364;52.426;9.424;2024-01-25T07:13:06;102070.69;;;5.44;100.00
8653;BME280;4364;52.426;9.424;2024-01-25T07:15:33;102076.31;;;5.42;100.00
8653;BME280;4364;52.426;9.424;2024-01-25T07:18:00;102081.91;;;5.47;100.00
8653;BME280;4364;52.426;9.424;2024-01-25T07:20:27;102093.09;;;5.44;100.00
8653;BME280;4364;52.426;9.424;2024-01-25T07:22:54;102101.41;;;5.49;100.00
8653;BME280;4364;52.426;9.424;2024-01-25T07:25:21;102100.38;;;5.44;100.00
8653;BME280;4364;52.426;9.424;2024-01-25T07:27:47;102116.38;;;5.38;100.00
8653;BME280;4364;52.426;9.424;2024-01-25T07:30:15;102104.94;;;5.43;100.00
8653;BME280;4364;52.426;9.424;2024-01-25T07:32:42;102101.41;;;5.43;100.00
8653;BME280;4364;52.426;9.424;2024-01-25T07:35:09;102097.25;;;5.53;100.00
8653;BME280;4364;52.426;9.424;2024-01-25T07:37:39;102085.22;;;5.56;100.00
8653;BME280;4364;52.426;9.424;2024-01-25T07:40:08;102087.28;;;5.47;100.00
8653;BME280;4364;52.426;9.424;2024-01-25T07:42:34;102082.94;;;5.46;100.00
8653;BME280;4364;52.426;9.424;2024-01-25T07:45:01;102086.47;;;5.47;100.00
8653;BME280;4364;52.426;9.424;2024-01-25T07:47:28;102090.81;;;5.48;100.00
8653;BME280;4364;52.426;9.424;2024-01-25T07:49:54;102082.94;;;5.39;100.00
8653;BME280;4364;52.426;9.424;2024-01-25T07:52:21;102109.69;;;5.34;100.00
8653;BME280;4364;52.426;9.424;2024-01-25T07:54:51;102120.69;;;5.39;100.00
8653;BME280;4364;52.426;9.424;2024-01-25T07:57:19;102113.03;;;5.43;100.00
8653;BME280;4364;52.426;9.424;2024-01-25T07:59:46;102120.50;;;5.41;100.00
8653;BME280;4364;52.426;9.424;2024-01-25T08:02:12;102116.56;;;5.37;100.00
8653;BME280;4364;52.426;9.424;2024-01-25T08:04:42;102135.03;;;5.47;100.00
8653;BME280;4364;52.426;9.424;2024-01-25T08:07:09;102126.53;;;5.43;100.00
8653;BME280;4364;52.426;9.424;2024-01-25T08:09:35;102147.47;;;5.41;100.00
8653;BME280;4364;52.426;9.424;2024-01-25T08:12:02;102147.47;;;5.41;100.00
8653;BME280;4364;52.426;9.424;2024-01-25T08:14:29;102135.66;;;5.49;100.00
8653;BME280;4364;52.426;9.424;2024-01-25T08:16:55;102152.47;;;5.44;100.00
8653;BME280;4364;52.426;9.424;2024-01-25T08:19:22;102153.72;;;5.48;100.00
8653;BME280;4364;52.426;9.424;2024-01-25T08:21:48;102154.34;;;5.44;100.00
8653;BME280;4364;52.426;9.424;2024-01-25T08:24:16;102153.50;;;5.50;100.00
8653;BME280;4364;52.426;9.424;2024-01-25T08:26:43;102163.44;;;5.43;100.00
8653;BME280;4364;52.426;9.424;2024-01-25T08:29:10;102168.25;;;5.47;100.00
8653;BME280;4364;52.426;9.424;2024-01-25T08:31:37;102164.09;;;5.58;100.00
8653;BME280;4364;52.426;9.424;2024-01-25T08:34:04;102163.47;;;5.49;100.00
8653;BME280;4364;52.426;9.424;2024-01-25T08:36:31;102165.94;;;5.57;100.00
8653;BME280;4364;52.426;9.424;2024-01-25T08:38:58;102173.03;;;5.59;100.00
8653;BME280;4364;52.426;9.424;2024-01-25T08:41:24;102173.84;;;5.46;100.00
8653;BME280;4364;52.426;9.424;2024-01-25T08:43:51;102174.66;;;5.46;100.00
8653;BME280;4364;52.426;9.424;2024-01-25T08:46:17;102179.03;;;5.41;100.00
8653;BME280;4364;52.426;9.424;2024-01-25T08:48:44;102176.53;;;5.46;100.00
8653;BME280;4364;52.426;9.424;2024-01-25T08:51:12;102177.81;;;5.50;100.00
8653;BME280;4364;52.426;9.424;2024-01-25T08:53:39;102178.00;;;5.48;100.00
8653;BME280;4364;52.426;9.424;2024-01-25T08:56:05;102183.81;;;5.52;100.00
8653;BME280;4364;52.426;9.424;2024-01-25T08:58:32;102182.16;;;5.57;100.00
8653;BME280;4364;52.426;9.424;2024-01-25T09:01:00;102196.50;;;5.58;100.00
8653;BME280;4364;52.426;9.424;2024-01-25T09:03:27;102192.72;;;5.59;100.00
8653;BME280;4364;52.426;9.424;2024-01-25T09:05:54;102194.59;;;5.52;100.00
8653;BME280;4364;52.426;9.424;2024-01-25T09:08:21;102193.34;;;5.61;100.00
8653;BME280;4364;52.426;9.424;2024-01-25T09:10:48;102202.72;;;5.65;100.00
8653;BME280;4364;52.426;9.424;2024-01-25T09:13:15;102194.00;;;5.70;100.00
8653;BME280;4364;52.426;9.424;2024-01-25T09:15:41;102192.13;;;5.64;100.00
8653;BME280;4364;52.426;9.424;2024-01-25T09:18:09;102184.63;;;5.66;100.00
8653;BME280;4364;52.426;9.424;2024-01-25T09:20:36;102191.50;;;5.75;100.00
8653;BME280;4364;52.426;9.424;2024-01-25T09:23:03;102204.34;;;5.80;100.00
8653;BME280;4364;52.426;9.424;2024-01-25T09:25:29;102201.66;;;5.66;100.00
8653;BME280;4364;52.426;9.424;2024-01-25T09:27:56;102204.34;;;5.73;100.00
8653;BME280;4364;52.426;9.424;2024-01-25T09:30:23;102200.63;;;5.81;100.00
8653;BME280;4364;52.426;9.424;2024-01-25T09:32:50;102209.13;;;5.78;100.00
8653;BME280;4364;52.426;9.424;2024-01-25T09:35:17;102207.06;;;5.73;100.00
8653;BME280;4364;52.426;9.424;2024-01-25T09:37:44;102199.81;;;5.87;100.00
8653;BME280;4364;52.426;9.424;2024-01-25T09:40:10;102211.63;;;5.86;100.00
8653;BME280;4364;52.426;9.424;2024-01-25T09:42:38;102214.94;;;5.88;100.00
8653;BME280;4364;52.426;9.424;2024-01-25T09:45:06;102217.66;;;5.88;100.00
8653;BME280;4364;52.426;9.424;2024-01-25T09:47:32;102211.44;;;6.07;100.00
8653;BME280;4364;52.426;9.424;2024-01-25T09:50:00;102223.50;;;6.05;100.00
8653;BME280;4364;52.426;9.424;2024-01-25T09:52:29;102224.72;;;6.16;100.00
8653;BME280;4364;52.426;9.424;2024-01-25T09:54:57;102225.75;;;6.08;100.00
8653;BME280;4364;52.426;9.424;2024-01-25T09:57:24;102227.22;;;6.10;100.00
8653;BME280;4364;52.426;9.424;2024-01-25T09:59:54;102224.53;;;6.10;100.00
8653;BME280;4364;52.426;9.424;2024-01-25T10:02:24;102228.91;;;6.05;100.00
8653;BME280;4364;52.426;9.424;2024-01-25T10:04:51;102216.00;;;6.14;100.00
8653;BME280;4364;52.426;9.424;2024-01-25T10:07:39;102222.66;;;6.11;100.00
8653;BME280;4364;52.426;9.424;2024-01-25T10:10:07;102221.41;;;6.14;100.00
8653;BME280;4364;52.426;9.424;2024-01-25T10:12:34;102237.00;;;6.18;100.00
8653;BME280;4364;52.426;9.424;2024-01-25T10:15:03;102224.72;;;6.16;100.00
8653;BME280;4364;52.426;9.424;2024-01-25T10:17:31;102224.09;;;6.20;100.00
8653;BME280;4364;52.426;9.424;2024-01-25T10:20:17;102225.31;;;6.24;100.00
8653;BME280;4364;52.426;9.424;2024-01-25T10:22:47;102232.41;;;6.19;100.00
8653;BME280;4364;52.426;9.424;2024-01-25T10:25:14;102234.28;;;6.18;100.00
8653;BME280;4364;52.426;9.424;2024-01-25T10:27:41;102231.81;;;6.17;100.00
8653;BME280;4364;52.426;9.424;2024-01-25T10:30:09;102219.75;;;6.06;100.00
8653;BME280;4364;52.426;9.424;2024-01-25T10:32:37;102225.53;;;6.16;100.00
8653;BME280;4364;52.426;9.424;2024-01-25T10:35:04;102227.84;;;6.12;100.00
8653;BME280;4364;52.426;9.424;2024-01-25T10:37:32;102224.13;;;6.14;100.00
8653;BME280;4364;52.426;9.424;2024-01-25T10:39:59;102229.50;;;6.20;100.00
8653;BME280;4364;52.426;9.424;2024-01-25T10:42:27;102225.75;;;6.15;100.00
8653;BME280;4364;52.426;9.424;2024-01-25T10:44:54;102225.75;;;6.15;100.00
8653;BME280;4364;52.426;9.424;2024-01-25T10:47:20;102228.88;;;6.32;100.00
8653;BME280;4364;52.426;9.424;2024-01-25T10:49:48;102239.47;;;6.20;100.00
8653;BME280;4364;52.426;9.424;2024-01-25T10:52:16;102244.25;;;6.04;100.00
8653;BME280;4364;52.426;9.424;2024-01-25T10:54:43;102231.59;;;5.91;100.00
8653;BME280;4364;52.426;9.424;2024-01-25T10:57:10;102237.84;;;6.05;100.00
8653;BME280;4364;52.426;9.424;2024-01-25T10:59:37;102225.75;;;6.15;100.00
8653;BME280;4364;52.426;9.424;2024-01-25T11:02:03;102224.94;;;6.14;100.00
8653;BME280;4364;52.426;9.424;2024-01-25T11:04:31;102223.91;;;6.15;100.00
8653;BME280;4364;52.426;9.424;2024-01-25T11:07:06;102216.00;;;6.14;100.00
8653;BME280;4364;52.426;9.424;2024-01-25T11:09:35;102225.34;;;6.11;100.00
8653;BME280;4364;52.426;9.424;2024-01-25T11:12:11;102232.63;;;6.10;100.00
8653;BME280;4364;52.426;9.424;2024-01-25T11:14:38;102239.25;;;6.21;100.00
8653;BME280;4364;52.426;9.424;2024-01-25T11:17:18;102231.34;;;6.20;100.00
8653;BME280;4364;52.426;9.424;2024-01-25T11:19:44;102239.44;;;6.26;100.00
8653;BME280;4364;52.426;9.424;2024-01-25T11:22:11;102240.28;;;6.40;100.00
8653;BME280;4364;52.426;9.424;2024-01-25T11:24:38;102244.22;;;6.31;100.00
8653;BME280;4364;52.426;9.424;2024-01-25T11:27:09;102242.59;;;6.23;100.00
8653;BME280;4364;52.426;9.424;2024-01-25T11:29:38;102236.56;;;6.21;100.00
8653;BME280;4364;52.426;9.424;2024-01-25T11:32:06;102234.28;;;6.18;100.00
8653;BME280;4364;52.426;9.424;2024-01-25T11:34:33;102249.66;;;6.18;100.00
8653;BME280;4364;52.426;9.424;2024-01-25T11:37:00;102235.53;;;6.09;100.00
8653;BME280;4364;52.426;9.424;2024-01-25T11:39:26;102236.56;;;6.01;100.00
8653;BME280;4364;52.426;9.424;2024-01-25T11:41:54;102226.41;;;6.03;100.00
8653;BME280;4364;52.426;9.424;2024-01-25T11:44:21;102245.72;;;6.07;100.00
8653;BME280;4364;52.426;9.424;2024-01-25T11:46:50;102229.50;;;6.14;100.00
8653;BME280;4364;52.426;9.424;2024-01-25T11:49:17;102227.03;;;6.12;100.00
8653;BME280;4364;52.426;9.424;2024-01-25T11:51:44;102227.41;;;6.22;100.00
8653;BME280;4364;52.426;9.424;2024-01-25T11:54:10;102224.69;;;6.29;100.00
8653;BME280;4364;52.426;9.424;2024-01-25T11:56:39;102236.50;;;6.41;100.00
8653;BME280;4364;52.426;9.424;2024-01-25T11:59:09;102237.78;;;6.39;100.00
8653;BME280;4364;52.426;9.424;2024-01-25T12:01:36;102230.28;;;6.41;100.00
8653;BME280;4364;52.426;9.424;2024-01-25T12:04:04;102232.19;;;6.34;100.00
8653;BME280;4364;52.426;9.424;2024-01-25T12:06:30;102231.97;;;6.42;100.00
8653;BME280;4364;52.426;9.424;2024-01-25T12:09:06;102221.13;;;6.55;100.00
8653;BME280;4364;52.426;9.424;2024-01-25T12:11:34;102206.50;;;6.70;100.00
8653;BME280;4364;52.426;9.424;2024-01-25T12:14:01;102212.28;;;6.73;100.00
8653;BME280;4364;52.426;9.424;2024-01-25T12:16:27;102209.31;;;6.88;100.00
8653;BME280;4364;52.426;9.424;2024-01-25T12:18:55;102210.13;;;6.95;100.00
8653;BME280;4364;52.426;9.424;2024-01-25T12:21:23;102198.22;;;7.03;100.00
8653;BME280;4364;52.426;9.424;2024-01-25T12:23:50;102204.63;;;7.15;99.88
8653;BME280;4364;52.426;9.424;2024-01-25T12:26:17;102202.69;;;7.22;99.51
8653;BME280;4364;52.426;9.424;2024-01-25T12:28:43;102207.91;;;7.24;98.84
8653;BME280;4364;52.426;9.424;2024-01-25T12:31:10;102201.66;;;7.23;98.04
8653;BME280;4364;52.426;9.424;2024-01-25T12:33:37;102196.47;;;7.22;97.16
8653;BME280;4364;52.426;9.424;2024-01-25T12:36:04;102196.56;;;7.40;96.95
8653;BME280;4364;52.426;9.424;2024-01-25T12:38:31;102204.03;;;7.45;96.30
8653;BME280;4364;52.426;9.424;2024-01-25T12:41:01;102199.88;;;7.42;95.95
8653;BME280;4364;52.426;9.424;2024-01-25T12:43:29;102194.53;;;7.29;96.18
8653;BME280;4364;52.426;9.424;2024-01-25T12:45:56;102201.16;;;7.33;96.39
8653;BME280;4364;52.426;9.424;2024-01-25T12:48:34;102193.94;;;7.27;96.21
8653;BME280;4364;52.426;9.424;2024-01-25T12:51:01;102206.16;;;7.36;95.68
8653;BME280;4364;52.426;9.424;2024-01-25T12:53:28;102201.97;;;7.40;94.99
8653;BME280;4364;52.426;9.424;2024-01-25T12:55:55;102205.16;;;7.31;94.57
8653;BME280;4364;52.426;9.424;2024-01-25T12:58:21;102197.84;;;7.31;94.15
8653;BME280;4364;52.426;9.424;2024-01-25T13:00:48;102206.09;;;7.43;95.00
8653;BME280;4364;52.426;9.424;2024-01-25T13:03:15;102204.97;;;7.57;92.99
8653;BME280;4364;52.426;9.424;2024-01-25T13:05:41;102209.50;;;7.64;92.82
8653;BME280;4364;52.426;9.424;2024-01-25T13:08:08;102201.94;;;7.72;92.23
8653;BME280;4364;52.426;9.424;2024-01-25T13:10:36;102211.16;;;7.65;92.04
8653;BME280;4364;52.426;9.424;2024-01-25T13:13:02;102208.66;;;7.63;91.79
8653;BME280;4364;52.426;9.424;2024-01-25T13:15:29;102201.81;;;7.60;92.63
8653;BME280;4364;52.426;9.424;2024-01-25T13:17:56;102199.72;;;7.63;92.84